sensor_id;sensor_type;location;lat;lon;timestamp;P1;durP1;ratioP1;P2;durP2;ratioP2
7255;SDS011;3669;49.200;9.242;2023-02-01T21:37:48;14.38;;;4.90;;
7255;SDS011;3669;49.200;9.242;2023-02-01T21:40:15;7.65;;;4.32;;
7255;SDS011;3669;49.200;9.242;2023-02-01T21:42:43;10.82;;;5.35;;
7255;SDS011;3669;49.200;9.242;2023-02-01T21:45:11;9.45;;;4.70;;
7255;SDS011;3669;49.200;9.242;2023-02-01T21:47:38;9.88;;;4.43;;
7255;SDS011;3669;49.200;9.242;2023-02-01T21:50:09;8.90;;;4.53;;
7255;SDS011;3669;49.200;9.242;2023-02-01T21:52:40;9.27;;;5.18;;
7255;SDS011;3669;49.200;9.242;2023-02-01T21:55:07;9.45;;;4.85;;
7255;SDS011;3669;49.200;9.242;2023-02-01T21:57:34;12.10;;;5.05;;
7255;SDS011;3669;49.200;9.242;2023-02-01T22:00:01;9.68;;;4.63;;
7255;SDS011;3669;49.200;9.242;2023-02-01T22:02:28;9.48;;;4.78;;
7255;SDS011;3669;49.200;9.242;2023-02-01T22:04:57;11.93;;;5.22;;
7255;SDS011;3669;49.200;9.242;2023-02-01T22:07:24;10.32;;;5.10;;
7255;SDS011;3669;49.200;9.242;2023-02-01T22:09:51;11.55;;;5.00;;
7255;SDS011;3669;49.200;9.242;2023-02-01T22:12:18;7.57;;;4.55;;
7255;SDS011;3669;49.200;9.242;2023-02-01T22:14:45;11.50;;;5.57;;
7255;SDS011;3669;49.200;9.242;2023-02-01T22:17:14;6.70;;;4.50;;
7255;SDS011;3669;49.200;9.242;2023-02-01T22:19:41;9.55;;;5.18;;
7255;SDS011;3669;49.200;9.242;2023-02-01T22:22:08;17.80;;;16.45;;
7255;SDS011;3669;49.200;9.242;2023-02-01T22:24:36;20.25;;;18.70;;
7255;SDS011;3669;49.200;9.242;2023-02-01T22:27:03;28.15;;;26.50;;
7255;SDS011;3669;49.200;9.242;2023-02-01T22:29:31;38.00;;;35.30;;
7255;SDS011;3669;49.200;9.242;2023-02-01T22:31:59;29.02;;;26.90;;
7255;SDS011;3669;49.200;9.242;2023-02-01T22:34:26;34.97;;;32.58;;
7255;SDS011;3669;49.200;9.242;2023-02-01T22:36:52;17.60;;;16.08;;
7255;SDS011;3669;49.200;9.242;2023-02-01T22:39:19;6.65;;;4.93;;
7255;SDS011;3669;49.200;9.242;2023-02-01T22:41:48;8.68;;;4.65;;
7255;SDS011;3669;49.200;9.242;2023-02-01T22:44:15;9.65;;;5.03;;
7255;SDS011;3669;49.200;9.242;2023-02-01T22:46:43;11.27;;;5.03;;
7255;SDS011;3669;49.200;9.242;2023-02-01T22:49:10;8.77;;;5.30;;
7255;SDS011;3669;49.200;9.242;2023-02-01T22:51:37;10.77;;;4.93;;
7255;SDS011;3669;49.200;9.242;2023-02-01T22:54:04;8.65;;;5.10;;
7255;SDS011;3669;49.200;9.242;2023-02-01T22:56:33;9.13;;;5.03;;
7255;SDS011;3669;49.200;9.242;2023-02-01T22:59:04;9.48;;;5.05;;
7255;SDS011;3669;49.200;9.242;2023-02-01T23:01:32;10.48;;;5.50;;
7255;SDS011;3669;49.200;9.242;2023-02-01T23:04:00;12.32;;;4.97;;
7255;SDS011;3669;49.200;9.242;2023-02-01T23:06:28;9.90;;;5.28;;
7255;SDS011;3669;49.200;9.242;2023-02-01T23:08:56;9.38;;;5.70;;
7255;SDS011;3669;49.200;9.242;2023-02-01T23:11:23;10.35;;;5.18;;
7255;SDS011;3669;49.200;9.242;2023-02-01T23:13:51;12.18;;;5.80;;
7255;SDS011;3669;49.200;9.242;2023-02-01T23:16:18;10.25;;;5.00;;
7255;SDS011;3669;49.200;9.242;2023-02-01T23:18:45;10.05;;;5.72;;
7255;SDS011;3669;49.200;9.242;2023-02-01T23:21:13;11.60;;;5.70;;
7255;SDS011;3669;49.200;9.242;2023-02-01T23:23:44;11.52;;;5.80;;
7255;SDS011;3669;49.200;9.242;2023-02-01T23:26:12;12.15;;;5.15;;
7255;SDS011;3669;49.200;9.242;2023-02-01T23:28:39;12.02;;;5.55;;
7255;SDS011;3669;49.200;9.242;2023-02-01T23:31:07;9.05;;;4.78;;
7255;SDS011;3669;49.200;9.242;2023-02-01T23:33:35;12.02;;;5.35;;
7255;SDS011;3669;49.200;9.242;2023-02-01T23:36:03;12.07;;;5.00;;
7255;SDS011;3669;49.200;9.242;2023-02-01T23:38:31;7.65;;;5.05;;
7255;SDS011;3669;49.200;9.242;2023-02-01T23:40:58;9.73;;;5.03;;
7255;SDS011;3669;49.200;9.242;2023-02-01T23:43:26;6.97;;;4.80;;
7255;SDS011;3669;49.200;9.242;2023-02-01T23:46:12;11.07;;;5.25;;
7255;SDS011;3669;49.200;9.242;2023-02-01T23:51:32;11.35;;;5.20;;
7255;SDS011;3669;49.200;9.242;2023-02-01T23:54:00;9.45;;;5.82;;
7255;SDS011;3669;49.200;9.242;2023-02-01T23:56:32;7.38;;;5.18;;
7255;SDS011;3669;49.200;9.242;2023-02-01T23:59:00;8.05;;;4.78;;
